Time;durP1;ratioP1;P1;durP2;ratioP2;P2;SDS_P1;SDS_P2;PMS_P1;PMS_P2;Temp;Humidity;BMP_temperature;BMP_pressure;BME280_temperature;BME280_humidity;BME280_pressure;Samples;Min_cycle;Max_cycle;Signal;HPM_P1;HPM_P2
2023/08/25 00:01:22;;;;;;;10.30;4.00;;;;;;;19.39;60.98;99730.46;105838;1258;74111;-77
2023/08/25 00:03:50;;;;;;;7.00;4.50;;;;;;;19.38;60.97;99731.68;105829;1258;70352;-75
2023/08/25 00:06:17;;;;;;;5.10;3.70;;;;;;;19.36;61.01;99730.45;105755;1255;72662;-77
2023/08/25 00:08:46;;;;;;;6.00;3.80;;;;;;;19.35;60.78;99729.01;105876;1251;60449;-78
2023/08/25 00:11:13;;;;;;;5.80;4.30;;;;;;;19.35;60.89;99721.62;105869;1257;60433;-77
2023/08/25 00:13:41;;;;;;;4.70;3.90;;;;;;;19.35;60.91;99719.56;105928;1253;74164;-77
2023/08/25 00:16:09;;;;;;;5.90;4.00;;;;;;;19.34;60.91;99719.08;105952;1254;70037;-75
2023/08/25 00:18:37;;;;;;;6.30;4.20;;;;;;;19.33;60.89;99710.76;105860;1253;72505;-77
2023/08/25 00:21:04;;;;;;;4.20;3.80;;;;;;;19.33;60.90;99707.83;105924;1255;60549;-78
2023/08/25 00:23:31;;;;;;;5.50;3.70;;;;;;;19.32;60.72;99706.52;106044;1253;60559;-74
2023/08/25 00:25:59;;;;;;;4.40;3.70;;;;;;;19.31;60.58;99701.22;105939;1257;73769;-75
2023/08/25 00:28:26;;;;;;;5.10;3.90;;;;;;;19.31;60.48;99697.81;105868;1253;70199;-75
2023/08/25 00:30:54;;;;;;;7.40;4.00;;;;;;;19.31;60.43;99690.37;105793;1254;72703;-73
2023/08/25 00:33:22;;;;;;;7.60;4.50;;;;;;;19.30;60.45;99688.89;105611;1260;60554;-72
2023/08/25 00:35:50;;;;;;;5.80;3.90;;;;;;;19.29;60.43;99689.73;105794;1258;61166;-74
2023/08/25 00:38:18;;;;;;;6.70;4.20;;;;;;;19.26;60.36;99686.85;106012;1254;73867;-74
2023/08/25 00:40:47;;;;;;;6.90;4.50;;;;;;;19.24;60.49;99689.20;105999;1257;69801;-74
2023/08/25 00:43:15;;;;;;;9.10;4.10;;;;;;;19.20;60.41;99687.97;106044;1257;70665;-73
2023/08/25 00:45:43;;;;;;;5.40;4.30;;;;;;;19.16;60.51;99686.52;106012;1254;60508;-74
2023/08/25 00:48:10;;;;;;;6.80;4.50;;;;;;;19.14;60.55;99685.48;105682;1260;60441;-75
2023/08/25 00:50:38;;;;;;;7.80;4.70;;;;;;;19.11;60.53;99683.98;105934;1254;73881;-75
2023/08/25 00:53:05;;;;;;;6.60;3.80;;;;;;;19.07;60.56;99680.42;105736;1261;69047;-73
2023/08/25 00:55:33;;;;;;;7.00;4.70;;;;;;;19.03;60.73;99680.92;105627;1259;71454;-73
2023/08/25 00:58:03;;;;;;;8.20;3.90;;;;;;;18.99;60.80;99678.48;105542;1254;60473;-75
2023/08/25 01:00:30;;;;;;;7.40;4.30;;;;;;;18.95;60.76;99675.62;105774;1257;60546;-73
2023/08/25 01:02:57;;;;;;;6.10;4.20;;;;;;;18.92;60.97;99671.12;105669;1259;72589;-75
2023/08/25 01:05:25;;;;;;;6.70;4.10;;;;;;;18.88;61.03;99669.13;105876;1254;70435;-71
2023/08/25 01:07:52;;;;;;;6.50;4.10;;;;;;;18.84;61.18;99661.09;105937;1255;71415;-75
2023/08/25 01:10:23;;;;;;;8.00;4.90;;;;;;;18.81;61.24;99664.56;105967;1255;60551;-73
2023/08/25 01:13:31;;;;;;;10.70;5.00;;;;;;;18.77;61.35;99667.42;105739;1254;60313;-74
2023/08/25 01:15:59;;;;;;;8.60;5.00;;;;;;;18.74;61.44;99667.59;105912;1252;72956;-75
2023/08/25 01:18:30;;;;;;;7.30;4.00;;;;;;;18.71;61.50;99668.16;105936;1260;68862;-77
2023/08/25 01:20:59;;;;;;;6.60;4.40;;;;;;;18.67;61.57;99668.11;105795;1255;70969;-75
2023/08/25 01:23:51;;;;;;;6.90;4.70;;;;;;;18.64;61.70;99669.73;105865;1255;60418;-76
2023/08/25 01:26:18;;;;;;;5.40;4.70;;;;;;;18.59;61.80;99678.75;105815;1254;60519;-77
2023/08/25 01:28:50;;;;;;;7.00;5.00;;;;;;;18.57;61.98;99680.02;105847;1254;73019;-74
2023/08/25 01:31:19;;;;;;;7.80;4.70;;;;;;;18.55;62.03;99683.74;105916;1254;69070;-75
2023/08/25 01:33:47;;;;;;;7.80;4.60;;;;;;;18.53;62.09;99678.85;105836;1257;72541;-77
2023/08/25 01:36:37;;;;;;;6.90;5.00;;;;;;;18.51;62.11;99677.22;105887;1254;60501;-76
2023/08/25 01:39:08;;;;;;;7.80;5.30;;;;;;;18.48;62.06;99678.81;105976;1254;61012;-75
2023/08/25 01:41:44;;;;;;;5.30;4.70;;;;;;;18.46;62.22;99680.42;105841;1254;72307;-75
2023/08/25 01:44:13;;;;;;;7.40;4.80;;;;;;;18.43;62.34;99680.81;106000;1258;69799;-75
2023/08/25 01:46:43;;;;;;;7.70;5.10;;;;;;;18.41;62.29;99683.06;105952;1256;72489;-78
2023/08/25 01:49:10;;;;;;;7.00;4.80;;;;;;;18.39;62.37;99677.78;106337;1254;60476;-78
2023/08/25 01:51:38;;;;;;;6.90;5.10;;;;;;;18.38;62.44;99676.51;105835;1254;60387;-77
2023/08/25 01:54:05;;;;;;;12.60;5.40;;;;;;;18.37;62.53;99680.57;106609;1254;72661;-79
2023/08/25 01:56:32;;;;;;;8.40;5.30;;;;;;;18.36;62.52;99681.29;107611;1259;68077;-77
2023/08/25 01:59:00;;;;;;;8.60;4.90;;;;;;;18.34;62.70;99683.65;106900;1254;71264;-75
2023/08/25 02:01:30;;;;;;;8.50;4.80;;;;;;;18.32;62.75;99683.10;105731;1254;60567;-76
2023/08/25 02:03:58;;;;;;;7.90;5.40;;;;;;;18.29;62.88;99683.70;105682;1259;60551;-77
2023/08/25 02:06:26;;;;;;;10.50;5.70;;;;;;;18.27;62.95;99688.84;105918;1254;71450;-77
2023/08/25 02:08:53;;;;;;;5.80;5.20;;;;;;;18.23;63.04;99689.84;105925;1257;69344;-76
2023/08/25 02:11:21;;;;;;;12.10;5.10;;;;;;;18.19;63.20;99688.98;105776;1258;71866;-77
2023/08/25 02:13:48;;;;;;;7.70;5.40;;;;;;;18.15;63.30;99688.25;105831;1254;62044;-75
2023/08/25 02:16:16;;;;;;;7.80;5.50;;;;;;;18.09;63.47;99687.38;105804;1254;61374;-76
2023/08/25 02:18:44;;;;;;;8.00;5.70;;;;;;;18.05;63.66;99691.21;105692;1254;76049;-75
2023/08/25 02:21:11;;;;;;;9.50;5.60;;;;;;;18.01;63.91;99693.98;105710;1255;71077;-73
2023/08/25 02:23:40;;;;;;;7.80;5.70;;;;;;;17.96;64.09;99692.15;105906;1254;72703;-75
2023/08/25 02:26:07;;;;;;;7.90;5.40;;;;;;;17.91;64.23;99692.30;105869;1257;60405;-78
2023/08/25 02:28:35;;;;;;;10.30;6.80;;;;;;;17.87;64.36;99687.87;105848;1254;60682;-76
2023/08/25 02:31:02;;;;;;;7.70;5.80;;;;;;;17.82;64.53;99686.84;105911;1254;73759;-76
2023/08/25 02:33:33;;;;;;;8.10;6.10;;;;;;;17.79;64.67;99686.11;105935;1257;68480;-75
2023/08/25 02:36:01;;;;;;;8.00;5.90;;;;;;;17.77;64.81;99687.50;105815;1254;72660;-76
2023/08/25 02:38:28;;;;;;;8.50;6.50;;;;;;;17.75;64.94;99694.04;105726;1253;60511;-75
2023/08/25 02:40:56;;;;;;;8.90;5.80;;;;;;;17.72;64.97;99695.34;105626;1258;60447;-75
2023/08/25 02:43:23;;;;;;;8.60;6.00;;;;;;;17.68;65.20;99693.86;105889;1253;72583;-76
2023/08/25 02:45:50;;;;;;;8.90;6.50;;;;;;;17.63;65.48;99697.98;105785;1253;70307;-77
2023/08/25 02:48:18;;;;;;;11.20;7.00;;;;;;;17.59;65.73;99699.27;105775;1257;72587;-75
2023/08/25 02:50:46;;;;;;;8.70;6.70;;;;;;;17.55;65.84;99700.75;105933;1253;60491;-76
2023/08/25 02:53:13;;;;;;;8.10;6.00;;;;;;;17.51;66.19;99702.18;105985;1257;60624;-76
2023/08/25 02:55:41;;;;;;;10.40;6.30;;;;;;;17.47;66.24;99703.76;105956;1254;73918;-77
2023/08/25 02:58:08;;;;;;;10.90;6.50;;;;;;;17.44;66.30;99705.06;105818;1257;68711;-76
2023/08/25 03:00:36;;;;;;;8.80;5.60;;;;;;;17.44;66.37;99702.64;105868;1253;72470;-73
2023/08/25 03:03:03;;;;;;;7.20;5.50;;;;;;;17.43;66.24;99703.58;105885;1254;61205;-75
2023/08/25 03:05:31;;;;;;;9.60;6.60;;;;;;;17.45;66.34;99704.07;105831;1253;60717;-75
2023/08/25 03:07:58;;;;;;;8.50;5.90;;;;;;;17.46;66.31;99707.00;106602;1254;73898;-74
2023/08/25 03:10:26;;;;;;;9.50;5.80;;;;;;;17.47;66.40;99714.17;106510;1253;68715;-73
2023/08/25 03:12:54;;;;;;;11.90;5.90;;;;;;;17.48;66.24;99717.94;106207;1254;72179;-75
2023/08/25 03:15:22;;;;;;;7.10;5.70;;;;;;;17.50;66.24;99716.98;106197;1254;60451;-78
2023/08/25 03:17:50;;;;;;;7.90;5.40;;;;;;;17.53;66.24;99720.34;105917;1256;60345;-76
2023/08/25 03:20:17;;;;;;;9.90;5.40;;;;;;;17.55;66.20;99714.59;105852;1257;72982;-76
2023/08/25 03:22:45;;;;;;;8.00;5.70;;;;;;;17.57;66.33;99712.39;105819;1252;68833;-76
2023/08/25 03:25:12;;;;;;;9.20;5.50;;;;;;;17.60;66.17;99715.64;105893;1257;72668;-77
2023/08/25 03:27:40;;;;;;;10.30;5.40;;;;;;;17.63;65.99;99717.74;105853;1257;60482;-75
2023/08/25 03:30:08;;;;;;;9.30;5.30;;;;;;;17.64;65.95;99718.80;106044;1256;60526;-75
2023/08/25 03:32:35;;;;;;;8.10;4.80;;;;;;;17.65;65.95;99720.95;105846;1253;73876;-73
2023/08/25 03:35:03;;;;;;;8.20;4.90;;;;;;;17.67;65.98;99716.98;105678;1256;69915;-75
2023/08/25 03:37:31;;;;;;;9.90;5.00;;;;;;;17.69;66.15;99724.32;105904;1254;72652;-76
2023/08/25 03:40:03;;;;;;;6.50;5.10;;;;;;;17.72;66.08;99728.27;105886;1254;60549;-75
2023/08/25 03:42:31;;;;;;;8.30;5.00;;;;;;;17.74;66.24;99733.14;105822;1253;60451;-76
2023/08/25 03:44:58;;;;;;;8.40;5.20;;;;;;;17.77;66.43;99735.92;105861;1254;72582;-74
2023/08/25 03:47:26;;;;;;;7.30;4.60;;;;;;;17.79;66.38;99735.50;105865;1254;70532;-75
2023/08/25 03:49:53;;;;;;;9.90;4.60;;;;;;;17.82;66.01;99743.92;105857;1252;72671;-75
2023/08/25 03:52:21;;;;;;;7.80;5.10;;;;;;;17.84;65.89;99749.48;105766;1253;60294;-75
2023/08/25 03:54:49;;;;;;;7.70;5.20;;;;;;;17.89;65.73;99751.23;105949;1253;60599;-77
2023/08/25 03:57:16;;;;;;;6.00;4.60;;;;;;;17.94;65.49;99754.55;105935;1257;73886;-76
2023/08/25 03:59:46;;;;;;;10.20;5.90;;;;;;;17.99;65.22;99759.93;105936;1253;70047;-75
2023/08/25 04:02:13;;;;;;;8.20;5.20;;;;;;;18.02;65.00;99767.38;105800;1253;71492;-77
2023/08/25 04:04:41;;;;;;;10.20;5.40;;;;;;;18.04;64.93;99763.09;105961;1257;60475;-76
2023/08/25 04:07:09;;;;;;;8.20;5.50;;;;;;;18.06;64.85;99763.37;105836;1258;60371;-76
2023/08/25 04:09:36;;;;;;;7.60;5.70;;;;;;;18.17;64.76;99762.96;105620;1254;72583;-76
2023/08/25 04:12:04;;;;;;;6.90;5.30;;;;;;;18.41;64.39;99762.50;105729;1254;69105;-76
2023/08/25 04:14:31;;;;;;;8.10;5.20;;;;;;;18.57;63.66;99765.52;105777;1259;71770;-75
2023/08/25 04:16:59;;;;;;;8.50;5.90;;;;;;;18.63;63.41;99761.33;105865;1259;60414;-76
2023/08/25 04:19:26;;;;;;;8.60;5.90;;;;;;;18.64;63.30;99761.76;106244;1254;60880;-75
2023/08/25 04:21:54;;;;;;;6.20;4.80;;;;;;;18.69;63.18;99768.36;106446;1257;73798;-76
2023/08/25 04:24:21;;;;;;;8.30;4.90;;;;;;;18.74;63.13;99770.92;106773;1257;68384;-77
2023/08/25 04:26:49;;;;;;;7.40;4.80;;;;;;;18.76;63.10;99771.31;106571;1253;72233;-78
2023/08/25 04:29:17;;;;;;;11.10;5.20;;;;;;;18.77;63.12;99776.35;105967;1253;60589;-77
2023/08/25 04:31:44;;;;;;;9.00;5.00;;;;;;;18.79;63.11;99780.40;105765;1253;60416;-77
2023/08/25 04:34:18;;;;;;;8.90;5.20;;;;;;;18.81;62.95;99783.02;105734;1254;73924;-75
2023/08/25 04:36:46;;;;;;;8.00;4.90;;;;;;;18.82;62.81;99781.12;105937;1253;70024;-77
2023/08/25 04:39:14;;;;;;;6.00;4.90;;;;;;;18.82;62.84;99784.41;105846;1257;72062;-76
2023/08/25 04:41:42;;;;;;;6.10;4.50;;;;;;;18.85;62.96;99785.09;105831;1257;60549;-76
2023/08/25 04:44:09;;;;;;;7.30;4.70;;;;;;;18.91;62.66;99786.60;105850;1252;60463;-77
2023/08/25 04:46:37;;;;;;;6.90;4.40;;;;;;;19.00;62.30;99782.17;105964;1252;71646;-78
2023/08/25 04:49:05;;;;;;;8.30;4.70;;;;;;;19.10;62.36;99781.83;105892;1253;70482;-76
2023/08/25 04:51:36;;;;;;;6.60;4.30;;;;;;;19.18;62.32;99774.36;105902;1253;71297;-75
2023/08/25 04:54:06;;;;;;;5.70;4.60;;;;;;;19.23;62.01;99774.89;105855;1254;60591;-77
2023/08/25 04:56:35;;;;;;;7.90;4.60;;;;;;;19.26;61.98;99774.70;105496;1257;60441;-76
2023/08/25 04:59:03;;;;;;;5.00;4.20;;;;;;;19.28;61.88;99775.30;105528;1253;73169;-76
2023/08/25 05:01:31;;;;;;;6.30;4.10;;;;;;;19.31;61.70;99778.40;105636;1254;70192;-75
2023/08/25 05:04:00;;;;;;;7.10;4.10;;;;;;;19.36;61.71;99778.20;105589;1257;73198;-76
2023/08/25 05:06:27;;;;;;;8.60;5.00;;;;;;;19.44;61.61;99775.85;105585;1253;60589;-77
2023/08/25 05:08:56;;;;;;;6.00;4.10;;;;;;;19.50;61.49;99777.08;105431;1257;60498;-75
2023/08/25 05:11:24;;;;;;;5.40;4.50;;;;;;;19.58;61.67;99778.42;105335;1253;72652;-77
2023/08/25 05:13:53;;;;;;;6.30;4.40;;;;;;;19.66;61.60;99779.02;105484;1258;69350;-76
2023/08/25 05:16:20;;;;;;;8.80;4.30;;;;;;;19.73;61.44;99774.11;105443;1257;72687;-76
2023/08/25 05:19:13;;;;;;;7.10;4.20;;;;;;;19.82;61.47;99774.38;105507;1252;60454;-76
2023/08/25 05:21:41;;;;;;;9.30;5.20;;;;;;;19.92;61.82;99765.20;105515;1257;60546;-77
2023/08/25 05:24:18;;;;;;;10.40;4.60;;;;;;;20.03;61.93;99759.61;105573;1253;71980;-75
2023/08/25 05:26:51;;;;;;;8.20;4.20;;;;;;;20.15;62.24;99759.55;105516;1257;70178;-74
2023/08/25 05:29:23;;;;;;;6.80;4.50;;;;;;;20.28;62.17;99760.57;105442;1258;71852;-75
2023/08/25 05:31:51;;;;;;;6.60;5.00;;;;;;;20.38;61.83;99764.67;105433;1253;60527;-74
2023/08/25 05:34:57;;;;;;;8.50;4.70;;;;;;;20.51;61.62;99765.92;105643;1253;60655;-75
2023/08/25 05:37:25;;;;;;;7.60;4.80;;;;;;;20.58;61.43;99769.52;105630;1253;72833;-76
2023/08/25 05:39:52;;;;;;;11.10;5.20;;;;;;;20.64;61.40;99770.06;105451;1253;70142;-76
2023/08/25 05:42:20;;;;;;;8.10;4.60;;;;;;;20.73;61.28;99764.06;105424;1254;72826;-75
2023/08/25 05:44:48;;;;;;;10.40;5.40;;;;;;;20.83;61.28;99760.79;105444;1257;60565;-75
2023/08/25 05:47:15;;;;;;;9.70;5.50;;;;;;;20.91;61.10;99763.36;105441;1251;59410;-73
2023/08/25 05:49:43;;;;;;;9.00;5.40;;;;;;;20.98;60.46;99759.45;105526;1251;72344;-76
2023/08/25 05:52:11;;;;;;;8.00;5.20;;;;;;;21.04;60.30;99756.52;105681;1257;70790;-76
2023/08/25 05:54:38;;;;;;;9.00;4.90;;;;;;;21.12;59.99;99758.83;105600;1251;70899;-75
2023/08/25 05:57:06;;;;;;;7.20;5.10;;;;;;;21.17;60.05;99757.40;105428;1257;60542;-74
2023/08/25 05:59:33;;;;;;;7.40;5.30;;;;;;;21.24;59.99;99758.51;105489;1253;60482;-75
2023/08/25 06:02:01;;;;;;;9.30;5.20;;;;;;;21.31;59.71;99755.24;105513;1257;73830;-75
2023/08/25 06:04:29;;;;;;;9.00;5.60;;;;;;;21.36;59.51;99754.38;105786;1257;68683;-76
2023/08/25 06:06:56;;;;;;;6.50;5.20;;;;;;;21.38;59.41;99750.30;105704;1251;72441;-74
2023/08/25 06:09:23;;;;;;;8.90;4.80;;;;;;;21.43;59.56;99753.27;105829;1251;60492;-75
2023/08/25 06:11:51;;;;;;;6.80;4.80;;;;;;;21.46;59.33;99755.78;105921;1253;60374;-77
2023/08/25 06:14:19;;;;;;;8.50;4.80;;;;;;;21.50;59.41;99761.80;105638;1251;73846;-75
2023/08/25 06:16:46;;;;;;;7.30;5.40;;;;;;;21.54;59.29;99759.11;105586;1256;68905;-75
2023/08/25 06:19:14;;;;;;;10.30;5.80;;;;;;;21.59;59.28;99759.36;105496;1255;72456;-74
2023/08/25 06:21:42;;;;;;;9.20;5.70;;;;;;;21.64;59.35;99763.50;105396;1258;60969;-74
2023/08/25 06:24:09;;;;;;;8.70;5.30;;;;;;;21.71;59.37;99761.52;105606;1253;60547;-74
2023/08/25 06:26:38;;;;;;;7.20;5.60;;;;;;;21.81;59.13;99763.23;105804;1253;73944;-73
2023/08/25 06:29:06;;;;;;;9.80;5.30;;;;;;;21.87;58.84;99764.80;107122;1251;69939;-75
2023/08/25 06:31:33;;;;;;;13.40;6.00;;;;;;;21.90;58.60;99765.88;107821;1252;71069;-74
2023/08/25 06:34:04;;;;;;;8.00;5.30;;;;;;;21.93;58.69;99765.13;105899;1253;60546;-74
2023/08/25 06:36:32;;;;;;;7.30;5.00;;;;;;;21.95;58.74;99758.90;105602;1253;60652;-74
2023/08/25 06:39:00;;;;;;;7.30;4.90;;;;;;;21.98;58.30;99756.52;105365;1253;72148;-76
2023/08/25 06:41:27;;;;;;;6.50;5.00;;;;;;;22.01;58.38;99754.18;105523;1257;68686;-76
2023/08/25 06:43:59;;;;;;;8.50;5.40;;;;;;;22.04;58.44;99747.80;105680;1256;70676;-76
2023/08/25 06:46:26;;;;;;;8.90;5.60;;;;;;;22.12;58.59;99748.10;105691;1253;60566;-76
2023/08/25 06:48:54;;;;;;;11.60;5.20;;;;;;;22.23;58.98;99748.63;105569;1257;60445;-75
2023/08/25 06:51:21;;;;;;;7.50;5.60;;;;;;;22.38;58.80;99753.13;105555;1254;74207;-75
2023/08/25 06:53:49;;;;;;;7.50;5.30;;;;;;;22.52;57.91;99754.22;105599;1257;68289;-75
2023/08/25 06:56:16;;;;;;;8.30;5.20;;;;;;;22.62;57.66;99753.23;105579;1254;72646;-75
2023/08/25 06:58:44;;;;;;;7.70;4.80;;;;;;;22.73;57.71;99752.20;105382;1258;60443;-76
2023/08/25 07:01:11;;;;;;;9.90;5.20;;;;;;;22.83;57.56;99755.61;105497;1253;60704;-75
2023/08/25 07:03:39;;;;;;;7.80;5.10;;;;;;;22.89;57.56;99757.04;105509;1257;73648;-76
2023/08/25 07:06:06;;;;;;;7.50;4.90;;;;;;;22.91;57.40;99756.81;105834;1257;68827;-75
2023/08/25 07:08:35;;;;;;;6.70;4.40;;;;;;;22.92;57.28;99750.42;105409;1253;73091;-75
2023/08/25 07:11:03;;;;;;;8.50;4.90;;;;;;;22.94;57.25;99748.87;105278;1253;328258;-75
2023/08/25 07:15:46;;;;;;;7.30;4.70;;;;;;;23.01;57.65;99745.90;102338;1296;600243;-73
2023/08/25 07:18:14;;;;;;;7.80;4.60;;;;;;;23.04;57.20;99739.45;104520;1267;60083;-74
2023/08/25 07:20:41;;;;;;;6.50;4.50;;;;;;;23.09;57.40;99740.77;104504;1267;60038;-76
2023/08/25 07:23:09;;;;;;;11.00;5.00;;;;;;;23.15;56.96;99741.61;104567;1272;72298;-75
2023/08/25 07:25:37;;;;;;;6.10;5.00;;;;;;;23.21;57.10;99735.02;104724;1267;70301;-74
2023/08/25 07:28:05;;;;;;;4.80;4.10;;;;;;;23.28;56.57;99735.16;104420;1270;72701;-76
2023/08/25 07:30:36;;;;;;;7.50;4.60;;;;;;;23.33;55.56;99732.23;104527;1266;165587;-76
2023/08/25 07:33:05;;;;;;;6.60;4.20;;;;;;;23.35;55.24;99736.31;104736;1267;62217;-74
2023/08/25 07:35:35;;;;;;;10.90;4.50;;;;;;;23.38;55.26;99735.98;104591;1267;59339;-74
2023/08/25 07:38:03;;;;;;;6.80;4.30;;;;;;;23.43;55.27;99738.32;104442;1267;70009;-75
2023/08/25 07:40:31;;;;;;;6.70;4.40;;;;;;;23.48;54.47;99742.40;104556;1267;71463;-74
2023/08/25 07:43:02;;;;;;;6.00;4.00;;;;;;;23.49;54.09;99742.58;104608;1266;60045;-74
2023/08/25 07:45:30;;;;;;;4.40;3.90;;;;;;;23.52;54.23;99741.63;104542;1270;59599;-73
2023/08/25 07:48:00;;;;;;;4.50;3.50;;;;;;;23.60;53.53;99740.63;104723;1267;73057;-75
2023/08/25 07:50:28;;;;;;;6.50;3.80;;;;;;;23.69;52.54;99735.05;104734;1264;70079;-75
2023/08/25 07:52:56;;;;;;;7.40;4.00;;;;;;;23.77;52.96;99729.81;104702;1266;71437;-73
2023/08/25 07:55:23;;;;;;;5.80;4.10;;;;;;;23.86;52.57;99730.46;104586;1265;60677;-74
2023/08/25 07:57:51;;;;;;;6.20;4.10;;;;;;;23.89;51.96;99728.66;104535;1263;59749;-73
2023/08/25 08:00:19;;;;;;;6.10;4.40;;;;;;;23.89;52.44;99729.19;104785;1264;73437;-75
2023/08/25 08:02:48;;;;;;;7.30;3.70;;;;;;;23.89;52.07;99729.30;104776;1264;70039;-74
2023/08/25 08:05:17;;;;;;;4.30;3.50;;;;;;;23.89;52.07;99727.63;104920;1269;73015;-73
2023/08/25 08:07:45;;;;;;;3.90;3.50;;;;;;;23.90;51.30;99724.92;104865;1264;60200;-73
2023/08/25 08:10:13;;;;;;;5.30;3.60;;;;;;;23.92;51.04;99720.59;104730;1263;59726;-74
2023/08/25 08:12:44;;;;;;;4.70;3.80;;;;;;;23.99;51.65;99729.18;104616;1263;71840;-74
2023/08/25 08:15:12;;;;;;;4.60;3.80;;;;;;;24.08;51.26;99728.89;104646;1270;69179;-74
2023/08/25 08:17:40;;;;;;;6.60;4.00;;;;;;;24.17;50.59;99728.09;104669;1263;72682;-75
2023/08/25 08:20:12;;;;;;;7.00;4.00;;;;;;;24.28;50.38;99734.37;104803;1265;59742;-74
2023/08/25 08:22:43;;;;;;;5.80;4.40;;;;;;;24.41;49.85;99733.55;104706;1268;59708;-74
2023/08/25 08:25:11;;;;;;;4.70;3.40;;;;;;;24.54;49.41;99733.95;104748;1264;73031;-73
2023/08/25 08:27:40;;;;;;;5.10;4.00;;;;;;;24.70;49.82;99731.67;104851;1267;68768;-75
2023/08/25 08:30:08;;;;;;;6.60;3.80;;;;;;;24.88;49.48;99730.75;104802;1266;70914;-75
2023/08/25 08:32:36;;;;;;;7.40;4.00;;;;;;;25.04;49.03;99732.73;104925;1267;60035;-73
2023/08/25 08:35:08;;;;;;;5.30;3.70;;;;;;;25.17;49.35;99731.19;104735;1264;60030;-75
2023/08/25 08:37:36;;;;;;;6.10;3.70;;;;;;;25.37;49.21;99729.27;104784;1264;72605;-74
2023/08/25 08:40:08;;;;;;;4.90;3.70;;;;;;;25.57;48.60;99726.90;104618;1264;70419;-75
2023/08/25 08:42:37;;;;;;;6.80;3.60;;;;;;;25.74;48.21;99730.80;104871;1269;71416;-73
2023/08/25 08:45:11;;;;;;;4.30;3.60;;;;;;;25.92;48.73;99730.48;105099;1262;59666;-74
2023/08/25 08:47:38;;;;;;;5.20;3.60;;;;;;;26.17;48.32;99729.08;105232;1262;60161;-74
2023/08/25 08:50:07;;;;;;;5.80;3.80;;;;;;;26.34;47.54;99733.00;105090;1257;72176;-74
2023/08/25 08:52:34;;;;;;;4.70;3.80;;;;;;;26.35;46.97;99733.07;105030;1258;68342;-75
2023/08/25 08:55:05;;;;;;;7.00;4.40;;;;;;;26.31;47.19;99727.83;105088;1257;71467;-74
2023/08/25 08:57:33;;;;;;;6.00;4.50;;;;;;;26.38;46.77;99727.88;105267;1260;59570;-74
2023/08/25 09:00:07;;;;;;;6.70;3.90;;;;;;;26.50;46.95;99724.89;105142;1258;60514;-75
2023/08/25 09:02:35;;;;;;;5.10;3.00;;;;;;;26.65;46.97;99723.27;105078;1262;72825;-73
2023/08/25 09:05:03;;;;;;;5.10;3.20;;;;;;;26.85;45.98;99713.19;105284;1257;70297;-75
2023/08/25 09:07:32;;;;;;;6.90;3.70;;;;;;;27.02;45.75;99716.14;105270;1260;72528;-74
2023/08/25 09:10:00;;;;;;;4.60;3.20;;;;;;;27.21;46.20;99713.62;105077;1264;59897;-73
2023/08/25 09:12:29;;;;;;;6.90;3.80;;;;;;;27.45;45.28;99714.23;105225;1257;61204;-72
2023/08/25 09:14:56;;;;;;;7.00;3.50;;;;;;;27.65;45.08;99706.81;105131;1256;73000;-74
2023/08/25 09:17:24;;;;;;;3.70;3.40;;;;;;;28.04;45.18;99706.84;105214;1260;70103;-76
2023/08/25 09:19:52;;;;;;;5.20;3.20;;;;;;;28.63;44.77;99707.39;105159;1259;73651;-75
2023/08/25 09:22:20;;;;;;;3.90;3.30;;;;;;;29.30;43.66;99703.08;105063;1257;60040;-74
2023/08/25 09:24:47;;;;;;;5.50;3.40;;;;;;;30.02;42.67;99697.41;105043;1262;60088;-75
2023/08/25 09:27:27;;;;;;;5.70;3.00;;;;;;;30.74;41.15;99699.95;105027;1257;73118;-75
2023/08/25 09:29:59;;;;;;;4.70;3.80;;;;;;;31.43;40.50;99699.67;105500;1257;70536;-77
2023/08/25 09:32:28;;;;;;;4.60;3.40;;;;;;;32.07;39.25;99698.13;105284;1262;71722;-76
2023/08/25 09:34:58;;;;;;;5.20;3.20;;;;;;;32.59;38.98;99692.13;105152;1260;60595;-74
2023/08/25 09:37:39;;;;;;;4.80;3.70;;;;;;;33.09;37.92;99691.92;105042;1262;59748;-76
2023/08/25 09:40:17;;;;;;;3.50;3.20;;;;;;;33.29;37.40;99685.00;105156;1258;73341;-75
2023/08/25 09:42:45;;;;;;;4.00;3.30;;;;;;;33.56;37.15;99688.70;105043;1257;71406;-76
2023/08/25 09:45:13;;;;;;;3.50;3.20;;;;;;;33.88;36.35;99686.77;105272;1260;74768;-74
2023/08/25 09:47:43;;;;;;;4.30;3.40;;;;;;;34.15;34.85;99690.21;105055;1262;59678;-74
2023/08/25 09:50:17;;;;;;;3.80;3.00;;;;;;;34.08;34.42;99689.92;105216;1262;62147;-72
2023/08/25 09:52:45;;;;;;;5.00;3.70;;;;;;;33.94;34.43;99688.44;105110;1260;73089;-74
2023/08/25 09:55:13;;;;;;;3.90;3.40;;;;;;;33.81;34.30;99688.10;105087;1257;70822;-74
2023/08/25 09:57:43;;;;;;;7.30;3.30;;;;;;;33.70;34.62;99680.54;105227;1260;72807;-73
2023/08/25 10:00:12;;;;;;;5.00;3.40;;;;;;;33.86;34.62;99687.14;105308;1259;59518;-76
2023/08/25 10:02:39;;;;;;;3.90;3.30;;;;;;;34.08;34.18;99683.30;105342;1257;60173;-75
2023/08/25 10:05:08;;;;;;;3.70;3.30;;;;;;;34.39;33.98;99677.65;105328;1256;73057;-76
2023/08/25 10:07:35;;;;;;;4.60;3.70;;;;;;;34.77;33.31;99674.11;105384;1257;61544;-75
2023/08/25 10:10:03;;;;;;;4.60;3.50;;;;;;;35.08;32.96;99670.63;105146;1256;62485;-74
2023/08/25 10:12:31;;;;;;;4.00;3.60;;;;;;;35.41;32.66;99673.02;105413;1259;59643;-75
2023/08/25 10:14:59;;;;;;;4.90;3.40;;;;;;;35.51;32.48;99670.13;105308;1259;60048;-75
2023/08/25 10:17:26;;;;;;;4.00;3.60;;;;;;;35.61;32.58;99678.13;105303;1259;62902;-76
2023/08/25 10:19:54;;;;;;;4.80;3.60;;;;;;;35.82;31.75;99675.27;105237;1257;61605;-73
2023/08/25 10:22:22;;;;;;;6.10;3.30;;;;;;;35.74;31.94;99677.05;105396;1259;63797;-74
2023/08/25 10:24:49;;;;;;;4.70;4.20;;;;;;;35.76;31.96;99676.09;105006;1257;59746;-75
2023/08/25 10:27:19;;;;;;;5.20;3.60;;;;;;;35.83;31.61;99673.17;105097;1254;59719;-74
2023/08/25 10:29:46;;;;;;;4.70;3.40;;;;;;;35.80;31.80;99675.28;105488;1255;62919;-73
2023/08/25 10:32:14;;;;;;;3.80;3.50;;;;;;;35.87;31.67;99673.13;105416;1256;60102;-75
2023/08/25 10:34:43;;;;;;;4.60;3.00;;;;;;;35.98;31.63;99673.48;105354;1257;63798;-76
2023/08/25 10:37:12;;;;;;;4.30;3.70;;;;;;;36.07;31.19;99666.85;105551;1254;59852;-75
2023/08/25 10:39:50;;;;;;;4.50;3.20;;;;;;;36.12;31.58;99665.52;105624;1254;59516;-76
2023/08/25 10:42:29;;;;;;;4.40;3.60;;;;;;;36.18;31.35;99658.63;105396;1259;64396;-74
2023/08/25 10:45:17;;;;;;;4.80;3.20;;;;;;;36.51;31.19;99659.81;105232;1261;68945;-75
2023/08/25 10:47:45;;;;;;;3.60;3.30;;;;;;;37.27;30.58;99661.94;105178;1257;63762;-74
2023/08/25 10:50:13;;;;;;;4.60;3.20;;;;;;;37.94;29.28;99661.81;105297;1260;60001;-74
2023/08/25 10:52:43;;;;;;;3.50;3.10;;;;;;;37.68;28.98;99661.95;105349;1254;59628;-75
2023/08/25 10:55:28;;;;;;;3.80;3.40;;;;;;;36.91;29.75;99659.39;105414;1255;64205;-74
2023/08/25 10:58:03;;;;;;;3.80;3.40;;;;;;;36.14;30.76;99653.63;105371;1257;61379;-75
2023/08/25 11:00:35;;;;;;;5.50;3.40;;;;;;;35.74;31.59;99657.12;105287;1256;63735;-74
2023/08/25 11:03:04;;;;;;;5.30;3.30;;;;;;;35.57;31.80;99656.66;105468;1259;59622;-75
2023/08/25 11:05:35;;;;;;;4.30;3.50;;;;;;;35.46;31.77;99656.86;105295;1259;59689;-76
2023/08/25 11:08:03;;;;;;;5.20;3.00;;;;;;;35.36;31.23;99656.40;105465;1255;71760;-74
2023/08/25 11:10:36;;;;;;;4.30;3.20;;;;;;;35.15;31.63;99653.23;105393;1257;61383;-74
2023/08/25 11:13:06;;;;;;;7.80;3.40;;;;;;;35.01;32.24;99652.14;105329;1257;63706;-75
2023/08/25 11:15:37;;;;;;;3.60;3.30;;;;;;;34.94;32.07;99652.63;105289;1256;59761;-75
2023/08/25 11:18:05;;;;;;;4.40;3.80;;;;;;;34.77;32.49;99655.13;105477;1261;59587;-74
2023/08/25 11:20:44;;;;;;;4.10;3.10;;;;;;;34.52;33.24;99651.48;105585;1256;62977;-74
2023/08/25 11:23:11;;;;;;;4.00;3.40;;;;;;;34.32;33.75;99648.22;105353;1259;69048;-76
2023/08/25 11:25:46;;;;;;;4.30;3.30;;;;;;;34.45;33.36;99641.00;105222;1257;72446;-75
2023/08/25 11:28:37;;;;;;;3.40;2.90;;;;;;;34.90;33.25;99640.51;105388;1259;60501;-76
2023/08/25 11:31:22;;;;;;;3.60;3.00;;;;;;;35.78;32.32;99632.30;104992;1257;60528;-75
2023/08/25 11:33:50;;;;;;;3.20;2.80;;;;;;;36.71;30.76;99631.06;105197;1257;64936;-75
2023/08/25 11:36:17;;;;;;;4.20;3.30;;;;;;;37.08;29.57;99639.13;105300;1256;60505;-75